sensor_id;sensor_type;location;lat;lon;timestamp;pressure;altitude;pressure_sealevel;temperature;humidity
56420;BME280;42323;52.170;7.538;2023-08-06T17:56:28;100373.50;;;14.10;100.00
56420;BME280;42323;52.170;7.538;2023-08-06T17:58:54;100374.09;;;14.18;100.00
56420;BME280;42323;52.170;7.538;2023-08-06T18:01:26;100333.22;;;13.89;100.00
56420;BME280;42323;52.170;7.538;2023-08-06T18:03:53;100294.97;;;13.73;100.00
56420;BME280;42323;52.170;7.538;2023-08-06T18:06:20;100268.66;;;13.53;100.00
56420;BME280;42323;52.170;7.538;2023-08-06T18:08:47;100352.84;;;14.06;100.00
56420;BME280;42323;52.170;7.538;2023-08-06T18:11:14;100334.44;;;14.00;100.00
56420;BME280;42323;52.170;7.538;2023-08-06T18:13:41;100241.94;;;13.43;100.00
56420;BME280;42323;52.170;7.538;2023-08-06T18:16:07;100267.00;;;13.59;100.00
56420;BME280;42323;52.170;7.538;2023-08-06T18:18:34;100378.75;;;14.29;100.00
56420;BME280;42323;52.170;7.538;2023-08-06T18:21:10;100331.19;;;13.91;100.00
56420;BME280;42323;52.170;7.538;2023-08-06T18:23:36;100306.28;;;13.80;100.00
56420;BME280;42323;52.170;7.538;2023-08-06T18:26:04;100326.91;;;13.90;100.00
56420;BME280;42323;52.170;7.538;2023-08-06T18:28:31;100372.91;;;14.14;100.00
56420;BME280;42323;52.170;7.538;2023-08-06T18:30:58;100408.75;;;14.35;100.00
56420;BME280;42323;52.170;7.538;2023-08-06T18:33:24;100355.28;;;14.08;100.00
56420;BME280;42323;52.170;7.538;2023-08-06T18:35:51;100243.78;;;13.23;100.00
56420;BME280;42323;52.170;7.538;2023-08-06T18:38:18;100286.03;;;13.68;100.00
56420;BME280;42323;52.170;7.538;2023-08-06T18:40:45;100363.19;;;14.01;100.00
56420;BME280;42323;52.170;7.538;2023-08-06T18:43:11;100407.09;;;14.41;100.00
56420;BME280;42323;52.170;7.538;2023-08-06T18:45:38;100410.34;;;14.43;100.00
56420;BME280;42323;52.170;7.538;2023-08-06T18:48:07;100417.44;;;14.42;100.00
56420;BME280;42323;52.170;7.538;2023-08-06T18:50:34;100442.97;;;14.42;100.00
56420;BME280;42323;52.170;7.538;2023-08-06T18:53:03;100442.34;;;14.46;100.00
56420;BME280;42323;52.170;7.538;2023-08-06T18:55:30;100431.84;;;14.33;100.00
56420;BME280;42323;52.170;7.538;2023-08-06T18:58:01;100419.91;;;14.17;100.00
56420;BME280;42323;52.170;7.538;2023-08-06T19:00:40;100441.56;;;14.32;100.00
56420;BME280;42323;52.170;7.538;2023-08-06T19:03:07;100449.47;;;14.32;100.00
56420;BME280;42323;52.170;7.538;2023-08-06T19:05:38;100436.75;;;14.16;100.00
56420;BME280;42323;52.170;7.538;2023-08-06T19:08:06;100439.38;;;14.23;100.00
56420;BME280;42323;52.170;7.538;2023-08-06T19:10:34;100437.16;;;14.13;100.00
56420;BME280;42323;52.170;7.538;2023-08-06T19:13:08;100468.75;;;14.26;100.00
56420;BME280;42323;52.170;7.538;2023-08-06T19:15:35;100429.44;;;13.98;100.00
56420;BME280;42323;52.170;7.538;2023-08-06T19:18:02;100468.75;;;14.20;100.00
56420;BME280;42323;52.170;7.538;2023-08-06T19:20:29;100466.94;;;14.14;100.00
56420;BME280;42323;52.170;7.538;2023-08-06T19:22:55;100474.84;;;14.14;100.00
56420;BME280;42323;52.170;7.538;2023-08-06T19:25:22;100452.97;;;14.00;100.00
56420;BME280;42323;52.170;7.538;2023-08-06T19:27:49;100480.94;;;14.08;100.00
56420;BME280;42323;52.170;7.538;2023-08-06T19:30:15;100481.94;;;14.00;100.00
56420;BME280;42323;52.170;7.538;2023-08-06T19:32:42;100485.78;;;13.97;100.00
56420;BME280;42323;52.170;7.538;2023-08-06T19:35:09;100480.91;;;13.94;100.00
56420;BME280;42323;52.170;7.538;2023-08-06T19:37:35;100489.03;;;13.99;100.00
56420;BME280;42323;52.170;7.538;2023-08-06T19:40:02;100483.53;;;13.94;100.00
56420;BME280;42323;52.170;7.538;2023-08-06T19:42:29;100464.09;;;13.82;100.00
56420;BME280;42323;52.170;7.538;2023-08-06T19:44:56;100488.63;;;13.96;100.00
56420;BME280;42323;52.170;7.538;2023-08-06T19:47:22;100494.06;;;13.94;100.00
56420;BME280;42323;52.170;7.538;2023-08-06T19:49:49;100483.56;;;13.88;100.00
56420;BME280;42323;52.170;7.538;2023-08-06T19:52:15;100475.44;;;13.83;100.00
56420;BME280;42323;52.170;7.538;2023-08-06T19:54:42;100498.13;;;13.90;100.00
56420;BME280;42323;52.170;7.538;2023-08-06T19:57:08;100497.91;;;13.85;100.00
56420;BME280;42323;52.170;7.538;2023-08-06T19:59:35;100502.00;;;13.88;100.00
56420;BME280;42323;52.170;7.538;2023-08-06T20:02:01;100475.00;;;13.72;100.00
56420;BME280;42323;52.170;7.538;2023-08-06T20:04:28;100493.47;;;13.79;100.00
56420;BME280;42323;52.170;7.538;2023-08-06T20:06:55;100482.94;;;13.79;100.00
56420;BME280;42323;52.170;7.538;2023-08-06T20:09:21;100484.38;;;13.88;100.00
56420;BME280;42323;52.170;7.538;2023-08-06T20:11:49;100474.22;;;13.85;100.00
56420;BME280;42323;52.170;7.538;2023-08-06T20:14:15;100464.28;;;13.74;100.00
56420;BME280;42323;52.170;7.538;2023-08-06T20:16:42;100489.00;;;13.79;100.00
56420;BME280;42323;52.170;7.538;2023-08-06T20:19:10;100482.91;;;13.72;100.00
56420;BME280;42323;52.170;7.538;2023-08-06T20:21:36;100491.22;;;13.76;100.00
56420;BME280;42323;52.170;7.538;2023-08-06T20:24:03;100488.38;;;13.71;100.00
56420;BME280;42323;52.170;7.538;2023-08-06T20:26:30;100500.75;;;13.77;100.00
56420;BME280;42323;52.170;7.538;2023-08-06T20:28:56;100480.88;;;13.61;100.00
56420;BME280;42323;52.170;7.538;2023-08-06T20:31:24;100466.25;;;13.45;100.00
56420;BME280;42323;52.170;7.538;2023-08-06T20:33:50;100487.72;;;13.55;100.00
56420;BME280;42323;52.170;7.538;2023-08-06T20:36:17;100495.06;;;13.60;100.00
56420;BME280;42323;52.170;7.538;2023-08-06T20:38:46;100478.84;;;13.57;100.00
56420;BME280;42323;52.170;7.538;2023-08-06T20:41:15;100439.31;;;13.30;100.00
56420;BME280;42323;52.170;7.538;2023-08-06T20:43:59;100466.66;;;13.42;100.00
56420;BME280;42323;52.170;7.538;2023-08-06T20:46:34;100457.09;;;13.28;100.00
56420;BME280;42323;52.170;7.538;2023-08-06T20:49:01;100417.09;;;12.98;100.00
56420;BME280;42323;52.170;7.538;2023-08-06T20:51:28;100464.78;;;13.23;100.00
56420;BME280;42323;52.170;7.538;2023-08-06T20:53:55;100499.88;;;13.50;100.00
56420;BME280;42323;52.170;7.538;2023-08-06T20:56:24;100516.34;;;13.65;100.00
56420;BME280;42323;52.170;7.538;2023-08-06T20:58:56;100494.19;;;13.40;100.00
56420;BME280;42323;52.170;7.538;2023-08-06T21:01:23;100477.97;;;13.36;100.00
56420;BME280;42323;52.170;7.538;2023-08-06T21:03:59;100433.50;;;13.00;100.00
56420;BME280;42323;52.170;7.538;2023-08-06T21:06:35;100387.84;;;12.66;100.00
56420;BME280;42323;52.170;7.538;2023-08-06T21:09:05;100470.47;;;13.33;100.00
56420;BME280;42323;52.170;7.538;2023-08-06T21:14:48;100404.88;;;12.77;100.00
56420;BME280;42323;52.170;7.538;2023-08-06T21:17:17;100381.00;;;12.72;100.00
56420;BME280;42323;52.170;7.538;2023-08-06T21:19:53;100465.13;;;13.20;100.00
56420;BME280;42323;52.170;7.538;2023-08-06T21:22:30;100480.78;;;13.28;100.00
56420;BME280;42323;52.170;7.538;2023-08-06T21:25:01;100420.69;;;12.84;100.00
56420;BME280;42323;52.170;7.538;2023-08-06T21:27:37;100512.84;;;13.51;100.00
56420;BME280;42323;52.170;7.538;2023-08-06T21:30:05;100517.28;;;13.44;100.00
56420;BME280;42323;52.170;7.538;2023-08-06T21:32:38;100524.38;;;13.50;100.00
56420;BME280;42323;52.170;7.538;2023-08-06T21:35:05;100526.41;;;13.48;100.00
56420;BME280;42323;52.170;7.538;2023-08-06T21:37:34;100510.75;;;13.34;100.00
56420;BME280;42323;52.170;7.538;2023-08-06T21:40:00;100498.19;;;13.22;100.00
56420;BME280;42323;52.170;7.538;2023-08-06T21:42:27;100499.78;;;13.23;100.00
56420;BME280;42323;52.170;7.538;2023-08-06T21:44:54;100541.19;;;13.49;100.00
56420;BME280;42323;52.170;7.538;2023-08-06T21:47:21;100530.22;;;13.39;100.00
56420;BME280;42323;52.170;7.538;2023-08-06T21:49:47;100540.59;;;13.47;100.00
56420;BME280;42323;52.170;7.538;2023-08-06T21:52:14;100523.13;;;13.40;100.00
56420;BME280;42323;52.170;7.538;2023-08-06T21:54:40;100527.59;;;13.39;100.00
56420;BME280;42323;52.170;7.538;2023-08-06T21:57:07;100508.91;;;13.27;100.00
56420;BME280;42323;52.170;7.538;2023-08-06T21:59:33;100546.06;;;13.52;100.00
56420;BME280;42323;52.170;7.538;2023-08-06T22:02:00;100539.34;;;13.43;100.00
56420;BME280;42323;52.170;7.538;2023-08-06T22:04:26;100517.22;;;13.31;100.00
56420;BME280;42323;52.170;7.538;2023-08-06T22:06:53;100529.81;;;13.36;100.00
56420;BME280;42323;52.170;7.538;2023-08-06T22:09:19;100545.44;;;13.44;100.00
56420;BME280;42323;52.170;7.538;2023-08-06T22:11:46;100538.72;;;13.35;100.00
56420;BME280;42323;52.170;7.538;2023-08-06T22:14:12;100545.38;;;13.37;100.00
56420;BME280;42323;52.170;7.538;2023-08-06T22:16:39;100552.25;;;13.38;100.00
56420;BME280;42323;52.170;7.538;2023-08-06T22:19:05;100532.81;;;13.33;100.00
56420;BME280;42323;52.170;7.538;2023-08-06T22:21:32;100555.53;;;13.47;100.00
56420;BME280;42323;52.170;7.538;2023-08-06T22:23:58;100562.25;;;13.49;100.00
56420;BME280;42323;52.170;7.538;2023-08-06T22:26:25;100553.13;;;13.45;100.00
56420;BME280;42323;52.170;7.538;2023-08-06T22:28:51;100540.34;;;13.42;100.00
56420;BME280;42323;52.170;7.538;2023-08-06T22:31:27;100536.72;;;13.43;100.00
56420;BME280;42323;52.170;7.538;2023-08-06T22:33:53;100534.84;;;13.37;100.00
56420;BME280;42323;52.170;7.538;2023-08-06T22:36:20;100543.59;;;13.44;100.00
56420;BME280;42323;52.170;7.538;2023-08-06T22:38:47;100537.50;;;13.37;100.00
56420;BME280;42323;52.170;7.538;2023-08-06T22:41:13;100541.75;;;13.38;100.00
56420;BME280;42323;52.170;7.538;2023-08-06T22:43:40;100550.06;;;13.42;100.00
56420;BME280;42323;52.170;7.538;2023-08-06T22:46:06;100521.41;;;13.19;100.00
56420;BME280;42323;52.170;7.538;2023-08-06T22:48:33;100536.66;;;13.30;100.00
56420;BME280;42323;52.170;7.538;2023-08-06T22:50:59;100551.28;;;13.46;100.00
56420;BME280;42323;52.170;7.538;2023-08-06T22:53:26;100555.16;;;13.50;100.00
56420;BME280;42323;52.170;7.538;2023-08-06T22:55:52;100538.72;;;13.35;100.00
56420;BME280;42323;52.170;7.538;2023-08-06T22:58:21;100531.41;;;13.37;100.00
56420;BME280;42323;52.170;7.538;2023-08-06T23:00:48;100535.25;;;13.34;100.00
56420;BME280;42323;52.170;7.538;2023-08-06T23:03:14;100551.06;;;13.41;100.00
56420;BME280;42323;52.170;7.538;2023-08-06T23:05:41;100498.09;;;13.09;100.00
56420;BME280;42323;52.170;7.538;2023-08-06T23:08:08;100554.50;;;13.41;100.00
56420;BME280;42323;52.170;7.538;2023-08-06T23:10:35;100551.28;;;13.39;100.00
56420;BME280;42323;52.170;7.538;2023-08-06T23:13:04;100555.31;;;13.35;100.00
56420;BME280;42323;52.170;7.538;2023-08-06T23:15:32;100548.41;;;13.34;100.00
56420;BME280;42323;52.170;7.538;2023-08-06T23:17:59;100540.34;;;13.36;100.00
56420;BME280;42323;52.170;7.538;2023-08-06T23:20:25;100542.75;;;13.37;100.00
56420;BME280;42323;52.170;7.538;2023-08-06T23:22:52;100545.16;;;13.32;100.00
56420;BME280;42323;52.170;7.538;2023-08-06T23:25:18;100514.94;;;13.21;100.00
56420;BME280;42323;52.170;7.538;2023-08-06T23:27:45;100533.78;;;13.25;100.00
56420;BME280;42323;52.170;7.538;2023-08-06T23:30:12;100543.56;;;13.31;100.00
56420;BME280;42323;52.170;7.538;2023-08-06T23:32:40;100538.28;;;13.31;100.00
56420;BME280;42323;52.170;7.538;2023-08-06T23:35:07;100521.84;;;13.22;100.00
56420;BME280;42323;52.170;7.538;2023-08-06T23:37:35;100537.69;;;13.36;100.00
56420;BME280;42323;52.170;7.538;2023-08-06T23:40:01;100555.31;;;13.42;100.00
56420;BME280;42323;52.170;7.538;2023-08-06T23:42:28;100549.63;;;13.38;100.00
56420;BME280;42323;52.170;7.538;2023-08-06T23:44:56;100548.81;;;13.38;100.00
56420;BME280;42323;52.170;7.538;2023-08-06T23:47:22;100531.78;;;13.27;100.00
56420;BME280;42323;52.170;7.538;2023-08-06T23:49:49;100552.50;;;13.43;100.00
56420;BME280;42323;52.170;7.538;2023-08-06T23:52:16;100542.16;;;13.35;100.00
56420;BME280;42323;52.170;7.538;2023-08-06T23:54:42;100531.41;;;13.30;100.00
56420;BME280;42323;52.170;7.538;2023-08-06T23:57:08;100544.03;;;13.48;100.00
56420;BME280;42323;52.170;7.538;2023-08-06T23:59:35;100535.44;;;13.33;100.00
